Time;durP1;ratioP1;P1;durP2;ratioP2;P2;SDS_P1;SDS_P2;PMS_P1;PMS_P2;Temp;Humidity;BMP_temperature;BMP_pressure;BME280_temperature;BME280_humidity;BME280_pressure;Samples;Min_cycle;Max_cycle;Signal;HPM_P1;HPM_P2
2022/06/14 00:01:35;;;;;;;1.88;1.00;;;22.00;50.70;;;;;;5057213;28;20447;-61
2022/06/14 00:04:01;;;;;;;3.33;1.20;;;22.00;50.70;;;;;;5055675;28;20140;-60
2022/06/14 00:06:32;;;;;;;2.15;1.15;;;22.00;50.70;;;;;;5056135;28;20040;-61
2022/06/14 00:08:59;;;;;;;1.80;0.90;;;22.00;50.60;;;;;;5057827;28;20032;-63
2022/06/14 00:11:37;;;;;;;1.73;0.90;;;22.00;50.60;;;;;;5055149;28;20150;-62
2022/06/14 00:14:05;;;;;;;2.53;1.13;;;22.00;50.60;;;;;;5057523;28;20120;-60
2022/06/14 00:16:31;;;;;;;2.55;1.20;;;22.00;50.60;;;;;;5056730;28;20040;-60
2022/06/14 00:18:58;;;;;;;1.52;0.90;;;22.00;50.60;;;;;;5055900;28;20468;-60
2022/06/14 00:21:24;;;;;;;2.50;1.02;;;22.00;50.60;;;;;;5055451;28;20067;-60
2022/06/14 00:23:50;;;;;;;2.35;0.98;;;22.00;50.60;;;;;;5059248;28;20168;-61
2022/06/14 00:26:16;;;;;;;2.20;0.98;;;22.00;50.50;;;;;;5055094;28;20052;-61
2022/06/14 00:28:43;;;;;;;2.22;0.98;;;22.00;50.50;;;;;;5058048;28;20564;-60
2022/06/14 00:31:29;;;;;;;2.30;1.02;;;22.00;50.50;;;;;;5054974;28;20059;-60
2022/06/14 00:33:55;;;;;;;1.90;1.00;;;22.00;50.30;;;;;;5056238;28;20483;-63
2022/06/14 00:36:28;;;;;;;2.45;1.08;;;22.00;50.40;;;;;;5056040;28;20094;-61
2022/06/14 00:38:55;;;;;;;3.13;1.05;;;22.00;50.40;;;;;;5056535;28;20046;-61
2022/06/14 00:41:46;;;;;;;1.80;0.98;;;22.00;50.40;;;;;;5056183;28;20047;-60
2022/06/14 00:44:18;;;;;;;2.22;0.85;;;22.00;50.30;;;;;;5049515;28;20122;-61
2022/06/14 00:46:59;;;;;;;2.00;0.95;;;22.00;50.30;;;;;;5055377;28;20029;-60
2022/06/14 00:49:31;;;;;;;2.72;0.93;;;22.00;50.40;;;;;;5048689;28;20044;-60
2022/06/14 00:52:16;;;;;;;1.25;0.90;;;22.00;50.30;;;;;;5053225;28;20079;-61
2022/06/14 00:54:47;;;;;;;2.80;0.98;;;22.00;50.30;;;;;;5057164;28;20049;-61
2022/06/14 00:57:26;;;;;;;1.25;1.00;;;22.00;50.30;;;;;;5055401;28;20135;-60
2022/06/14 01:00:07;;;;;;;2.15;1.00;;;21.90;50.20;;;;;;5052258;28;20052;-61
2022/06/14 01:02:40;;;;;;;1.60;0.90;;;22.00;50.30;;;;;;5052987;28;20437;-60
2022/06/14 01:05:12;;;;;;;2.22;1.00;;;22.00;50.20;;;;;;5056778;28;20041;-61
2022/06/14 01:07:46;;;;;;;2.25;1.00;;;22.00;50.20;;;;;;5056522;28;20036;-61
2022/06/14 01:10:17;;;;;;;1.75;0.90;;;22.00;50.20;;;;;;5056181;28;20673;-60
2022/06/14 01:12:46;;;;;;;1.27;0.85;;;22.00;50.20;;;;;;5051925;28;20178;-60
2022/06/14 01:15:20;;;;;;;1.83;0.82;;;21.90;50.10;;;;;;5056034;28;20559;-60
2022/06/14 01:17:53;;;;;;;1.40;0.80;;;22.00;50.10;;;;;;5056993;28;20499;-60
2022/06/14 01:20:21;;;;;;;1.15;0.73;;;22.00;50.10;;;;;;5057049;28;20049;-60
2022/06/14 01:22:48;;;;;;;2.28;1.00;;;21.90;50.00;;;;;;5054701;28;20052;-60
2022/06/14 01:25:15;;;;;;;1.83;0.85;;;21.90;50.10;;;;;;5055008;28;20033;-60
2022/06/14 01:27:41;;;;;;;5.90;1.45;;;21.90;50.00;;;;;;5056442;28;20391;-61
2022/06/14 01:30:18;;;;;;;3.33;1.15;;;21.90;50.00;;;;;;5053575;28;20115;-60
2022/06/14 01:32:56;;;;;;;1.60;0.90;;;21.90;50.00;;;;;;5055167;28;20040;-60
2022/06/14 01:35:25;;;;;;;1.90;1.00;;;21.90;50.00;;;;;;5054677;28;20381;-60
2022/06/14 01:37:54;;;;;;;2.45;1.20;;;22.00;50.00;;;;;;5054427;28;20472;-62
2022/06/14 01:40:44;;;;;;;1.67;1.00;;;21.90;50.00;;;;;;5054921;28;20173;-59
2022/06/14 01:43:44;;;;;;;2.45;0.90;;;21.90;49.90;;;;;;5053630;28;20040;-61
2022/06/14 01:46:25;;;;;;;1.85;0.80;;;21.90;50.00;;;;;;5045492;28;20466;-61
2022/06/14 01:51:50;;;;;;;;;;;21.90;49.90;;;;;;5057492;28;20040;-62
2022/06/14 01:52:08;;;;;;;1.33;0.90;;;21.90;49.90;;;;;;5055269;28;19924;-60
2022/06/14 01:54:50;;;;;;;1.67;0.77;;;21.80;50.00;;;;;;5054384;28;20050;-60
2022/06/14 01:57:49;;;;;;;1.08;0.63;;;21.90;50.00;;;;;;5050576;28;20113;-61
2022/06/14 02:00:22;;;;;;;2.25;1.08;;;21.90;50.00;;;;;;5030273;28;20460;-61
2022/06/14 02:06:11;;;;;;;3.78;0.98;;;21.90;49.90;;;;;;5052385;28;20182;-61
2022/06/14 02:08:46;;;;;;;2.47;1.02;;;21.90;50.00;;;;;;5056504;28;20469;-60
2022/06/14 02:11:18;;;;;;;1.80;1.10;;;21.90;49.90;;;;;;5053751;28;20045;-62
2022/06/14 02:13:52;;;;;;;1.35;0.80;;;21.90;49.90;;;;;;5053512;28;20044;-60
2022/06/14 02:16:26;;;;;;;2.90;1.00;;;21.80;49.80;;;;;;5055257;28;20036;-60
2022/06/14 02:19:12;;;;;;;1.70;1.00;;;21.90;49.80;;;;;;5055633;28;20052;-59
2022/06/14 02:21:51;;;;;;;1.85;0.98;;;21.90;49.80;;;;;;5056326;28;20051;-60
2022/06/14 02:24:25;;;;;;;2.28;1.02;;;21.80;49.80;;;;;;5053968;28;20053;-61
2022/06/14 02:27:03;;;;;;;1.60;0.80;;;21.80;49.70;;;;;;5056502;28;20040;-62
2022/06/14 02:29:52;;;;;;;2.90;0.93;;;21.90;49.80;;;;;;5054611;28;20531;-62
2022/06/14 02:32:25;;;;;;;1.92;1.05;;;21.90;49.80;;;;;;5060719;28;20041;-59
2022/06/14 02:34:57;;;;;;;1.92;0.90;;;21.80;49.80;;;;;;5055008;28;20071;-63
2022/06/14 02:37:49;;;;;;;1.70;0.88;;;21.80;49.80;;;;;;5057377;28;20091;-60
2022/06/14 02:40:25;;;;;;;1.17;0.80;;;21.80;49.70;;;;;;5057054;28;20115;-61
2022/06/14 02:43:03;;;;;;;1.48;0.70;;;21.80;49.70;;;;;;5051253;28;20049;-61
2022/06/14 02:45:54;;;;;;;1.90;0.75;;;21.80;49.70;;;;;;5055068;28;20047;-61
2022/06/14 02:48:42;;;;;;;2.28;1.10;;;21.80;49.70;;;;;;5052286;28;20687;-61
2022/06/14 02:51:43;;;;;;;2.83;0.98;;;21.80;49.70;;;;;;5053982;28;20055;-60
2022/06/14 02:54:18;;;;;;;1.80;0.95;;;21.80;49.60;;;;;;5035282;28;20483;-61
2022/06/14 02:57:05;;;;;;;1.45;0.90;;;21.80;49.70;;;;;;5059365;28;20409;-60
2022/06/14 03:00:02;;;;;;;2.05;1.00;;;21.80;49.60;;;;;;5055493;28;20522;-60
2022/06/14 03:02:43;;;;;;;2.10;1.08;;;21.80;49.70;;;;;;5046426;28;20412;-60
2022/06/14 03:05:16;;;;;;;1.08;0.90;;;21.80;49.70;;;;;;5053644;28;20044;-60
2022/06/14 03:07:53;;;;;;;3.00;0.98;;;21.80;49.70;;;;;;5052340;28;20033;-62
2022/06/14 03:10:19;;;;;;;1.80;0.60;;;21.80;49.70;;;;;;5054445;28;20041;-60
2022/06/14 03:13:25;;;;;;;1.23;0.80;;;21.80;49.70;;;;;;5055048;28;20071;-61
2022/06/14 03:16:07;;;;;;;1.30;0.93;;;21.80;49.60;;;;;;5057841;28;20094;-60
2022/06/14 03:18:56;;;;;;;2.15;0.90;;;21.80;49.70;;;;;;5058086;28;20074;-60
2022/06/14 03:21:35;;;;;;;2.85;1.02;;;21.80;49.60;;;;;;5059118;28;20089;-61
2022/06/14 03:24:28;;;;;;;1.77;0.82;;;21.80;49.70;;;;;;5053944;28;20606;-63
2022/06/14 03:27:14;;;;;;;1.92;0.80;;;21.80;49.60;;;;;;5051516;28;20056;-59
2022/06/14 03:29:45;;;;;;;2.88;0.90;;;21.80;49.60;;;;;;5056389;28;20078;-62
2022/06/14 03:32:39;;;;;;;2.45;0.95;;;21.80;49.70;;;;;;5058766;28;20029;-60
2022/06/14 03:35:34;;;;;;;1.27;0.82;;;21.80;49.60;;;;;;5058937;28;20088;-60
2022/06/14 03:38:04;;;;;;;2.00;1.23;;;21.80;49.60;;;;;;5055270;28;20434;-60
2022/06/14 03:40:30;;;;;;;1.60;0.80;;;21.70;49.60;;;;;;5059541;28;20049;-61
2022/06/14 03:42:56;;;;;;;1.40;0.90;;;21.80;49.60;;;;;;5057121;28;20037;-63
2022/06/14 03:45:29;;;;;;;2.03;1.10;;;21.80;49.60;;;;;;5057103;28;20036;-63
2022/06/14 03:47:55;;;;;;;2.08;0.93;;;21.70;49.50;;;;;;5057933;28;20029;-61
2022/06/14 03:50:54;;;;;;;1.65;0.88;;;21.70;49.60;;;;;;5057613;28;20859;-60
2022/06/14 03:53:57;;;;;;;2.83;1.25;;;21.80;49.60;;;;;;5056599;28;20033;-60
2022/06/14 03:56:40;;;;;;;3.10;1.00;;;21.70;49.50;;;;;;5057406;28;20171;-60
2022/06/14 03:59:15;;;;;;;5.13;1.33;;;21.70;49.50;;;;;;5056154;28;20036;-62
2022/06/14 04:01:52;;;;;;;2.75;1.00;;;21.70;50.30;;;;;;5072762;28;20495;-60
2022/06/14 04:04:24;;;;;;;2.58;1.13;;;21.70;49.60;;;;;;5056512;28;20127;-61
2022/06/14 04:07:14;;;;;;;1.75;0.90;;;21.70;49.50;;;;;;5058382;28;20587;-60
2022/06/14 04:09:48;;;;;;;2.22;0.90;;;21.70;49.50;;;;;;5055777;28;20135;-61
2022/06/14 04:12:26;;;;;;;2.03;0.70;;;21.70;49.60;;;;;;5057781;28;20037;-61
2022/06/14 04:15:18;;;;;;;2.65;1.00;;;21.70;49.50;;;;;;5055645;28;20097;-60
2022/06/14 04:17:56;;;;;;;1.80;0.80;;;21.70;49.60;;;;;;5057554;28;20049;-60
2022/06/14 04:20:44;;;;;;;1.38;0.98;;;21.70;49.50;;;;;;5057528;28;20045;-61
2022/06/14 04:23:19;;;;;;;2.05;0.95;;;21.70;49.50;;;;;;5057083;28;20052;-61
2022/06/14 04:26:00;;;;;;;2.13;0.95;;;21.70;49.60;;;;;;5056872;28;20052;-59
2022/06/14 04:28:49;;;;;;;1.92;0.90;;;21.70;49.50;;;;;;5056516;28;20772;-60
2022/06/14 04:31:18;;;;;;;2.00;0.90;;;21.70;49.60;;;;;;5054932;28;20048;-62
2022/06/14 04:33:57;;;;;;;2.50;1.02;;;21.70;49.60;;;;;;5051885;28;20527;-62
2022/06/14 04:36:32;;;;;;;1.73;0.85;;;21.70;49.60;;;;;;5052975;28;20052;-63
2022/06/14 04:39:35;;;;;;;2.42;0.90;;;21.70;49.60;;;;;;5059756;28;20048;-61
2022/06/14 04:42:10;;;;;;;1.90;0.80;;;21.70;49.50;;;;;;5027056;28;20041;-59
2022/06/14 04:44:54;;;;;;;2.13;1.23;;;21.60;49.50;;;;;;5055976;28;20420;-60
2022/06/14 04:47:56;;;;;;;1.67;0.90;;;21.70;49.60;;;;;;5056502;28;20039;-60
2022/06/14 04:50:27;;;;;;;4.00;1.27;;;21.70;49.60;;;;;;5045584;28;20048;-61
2022/06/14 04:52:58;;;;;;;2.40;1.27;;;21.60;49.60;;;;;;5055679;28;20719;-60
2022/06/14 04:55:31;;;;;;;3.33;0.90;;;21.60;49.70;;;;;;5053525;28;20166;-60
2022/06/14 04:58:34;;;;;;;2.35;1.02;;;21.60;49.60;;;;;;5054817;28;20133;-60
2022/06/14 05:01:05;;;;;;;2.22;1.00;;;21.60;49.60;;;;;;5056167;28;20083;-61
2022/06/14 05:03:33;;;;;;;;;;;21.60;49.60;;;;;;5057589;28;20040;-60
2022/06/14 05:06:02;;;;;;;1.92;1.15;;;21.60;49.70;;;;;;5056665;28;20007;-59
2022/06/14 05:09:05;;;;;;;1.63;0.93;;;21.60;49.80;;;;;;5061652;28;20746;-60
2022/06/14 05:11:46;;;;;;;3.33;1.30;;;21.60;49.70;;;;;;5023464;28;20047;-59
2022/06/14 05:14:40;;;;;;;3.03;1.55;;;21.60;49.80;;;;;;5055874;28;20040;-60
2022/06/14 05:17:18;;;;;;;2.90;1.13;;;21.60;49.70;;;;;;5050509;28;20045;-60
2022/06/14 05:20:01;;;;;;;2.90;1.15;;;21.60;49.80;;;;;;5056562;28;20045;-59
2022/06/14 05:22:34;;;;;;;1.77;1.00;;;21.60;49.80;;;;;;5055777;28;20057;-60
2022/06/14 05:25:01;;;;;;;2.28;1.27;;;21.60;49.80;;;;;;5055380;28;20052;-60
2022/06/14 05:27:41;;;;;;;2.45;1.20;;;21.60;49.80;;;;;;5041986;28;20045;-59
2022/06/14 05:30:37;;;;;;;1.52;1.00;;;21.60;49.80;;;;;;5061190;28;20039;-60
2022/06/14 05:33:25;;;;;;;3.10;1.20;;;21.60;49.80;;;;;;5055310;28;20108;-59
2022/06/14 05:36:06;;;;;;;2.05;0.90;;;21.60;49.80;;;;;;5056263;28;20112;-60
2022/06/14 05:38:45;;;;;;;3.25;1.30;;;21.60;49.80;;;;;;5054514;28;20404;-60
2022/06/14 05:41:35;;;;;;;3.47;1.15;;;21.60;49.80;;;;;;5057166;28;20155;-61
2022/06/14 05:44:11;;;;;;;2.25;1.20;;;21.60;49.80;;;;;;5055852;28;20076;-59
2022/06/14 05:46:43;;;;;;;3.15;1.30;;;21.60;49.90;;;;;;5052606;28;20047;-61
2022/06/14 05:49:24;;;;;;;2.15;0.90;;;21.60;49.90;;;;;;5054689;28;20507;-61
2022/06/14 05:51:56;;;;;;;;;;;21.60;49.90;;;;;;5054459;28;20037;-59
2022/06/14 05:55:00;;;;;;;2.28;1.10;;;21.50;49.80;;;;;;5053854;28;19924;-60
2022/06/14 05:57:37;;;;;;;3.92;1.30;;;21.50;49.90;;;;;;5018066;28;20135;-60
2022/06/14 06:00:20;;;;;;;3.60;1.27;;;21.50;49.90;;;;;;5056046;28;20051;-61
2022/06/14 06:03:01;;;;;;;4.63;1.27;;;21.50;49.90;;;;;;5052209;28;20119;-60
2022/06/14 06:05:42;;;;;;;;;;;21.50;50.00;;;;;;5056090;28;20150;-60
2022/06/14 06:08:36;;;;;;;2.77;1.10;;;21.50;50.00;;;;;;5055955;28;19922;-60
2022/06/14 06:11:20;;;;;;;4.40;1.27;;;21.50;50.00;;;;;;5056036;28;20474;-61
2022/06/14 06:14:00;;;;;;;3.75;1.25;;;21.50;49.90;;;;;;5053928;28;20083;-60
2022/06/14 06:19:26;;;;;;;5.30;1.33;;;21.50;49.50;;;;;;5056569;28;20045;-60
2022/06/14 06:22:00;;;;;;;3.97;1.65;;;21.50;50.00;;;;;;5055237;28;20402;-60
2022/06/14 06:24:51;;;;;;;3.05;1.30;;;21.50;49.50;;;;;;5052274;28;20049;-60
2022/06/14 06:27:18;;;;;;;;;;;21.50;49.60;;;;;;5055748;28;20469;-60
2022/06/14 06:29:52;;;;;;;4.72;1.70;;;21.50;49.70;;;;;;5070339;28;19978;-63
2022/06/14 06:32:20;;;;;;;5.65;1.85;;;21.50;49.60;;;;;;5053568;28;20796;-60
2022/06/14 06:34:48;;;;;;;10.52;1.83;;;21.50;49.20;;;;;;5054311;28;20135;-61
2022/06/14 06:37:16;;;;;;;4.25;1.42;;;21.40;49.00;;;;;;5052793;28;20036;-62
2022/06/14 06:39:58;;;;;;;3.17;1.50;;;21.50;49.40;;;;;;5050845;28;20048;-60
2022/06/14 06:42:30;;;;;;;6.15;1.75;;;21.50;49.60;;;;;;5052833;28;20036;-61
2022/06/14 06:45:07;;;;;;;5.93;1.60;;;21.50;49.60;;;;;;5053973;28;20075;-60
2022/06/14 06:47:58;;;;;;;3.55;1.30;;;21.50;49.60;;;;;;5053369;28;20507;-61
2022/06/14 06:50:44;;;;;;;4.72;1.20;;;21.50;49.60;;;;;;5042744;28;20053;-60
2022/06/14 06:53:21;;;;;;;5.38;1.92;;;21.50;49.50;;;;;;5054043;28;20048;-62
2022/06/14 06:55:57;;;;;;;4.85;1.90;;;21.50;49.50;;;;;;5054046;28;21097;-60
2022/06/14 06:58:44;;;;;;;3.53;1.40;;;21.50;49.10;;;;;;5052293;28;20688;-61
2022/06/14 07:01:22;;;;;;;4.45;1.50;;;21.50;49.50;;;;;;5053628;28;20450;-62
2022/06/14 07:04:02;;;;;;;6.47;1.60;;;21.50;49.60;;;;;;5053638;28;20080;-63
2022/06/14 07:06:35;;;;;;;5.13;1.70;;;21.40;49.50;;;;;;5053219;28;20036;-60
2022/06/14 07:09:23;;;;;;;6.35;1.88;;;21.50;49.70;;;;;;5053649;28;20047;-60
2022/06/14 07:11:51;;;;;;;3.72;1.48;;;21.40;49.80;;;;;;5050546;28;20044;-59
2022/06/14 07:14:27;;;;;;;4.78;1.70;;;21.40;50.00;;;;;;5053267;28;20131;-59
2022/06/14 07:17:15;;;;;;;4.82;1.60;;;21.40;50.00;;;;;;5052129;28;20028;-61
2022/06/14 07:19:46;;;;;;;3.67;1.88;;;21.50;50.10;;;;;;5051589;28;20041;-62
2022/06/14 07:22:19;;;;;;;2.85;1.38;;;21.40;49.90;;;;;;5050761;28;20072;-61
2022/06/14 07:25:00;;;;;;;11.15;1.80;;;21.40;50.00;;;;;;5052627;28;20041;-60
2022/06/14 07:27:28;;;;;;;;;;;21.40;49.90;;;;;;5051604;28;20074;-60
2022/06/14 07:30:11;;;;;;;4.53;1.40;;;21.40;49.20;;;;;;5052579;28;20039;-64
2022/06/14 07:32:47;;;;;;;4.13;1.30;;;21.40;49.90;;;;;;5052425;28;20040;-60
2022/06/14 07:35:15;;;;;;;10.10;2.15;;;21.40;49.70;;;;;;5053891;28;20694;-60
2022/06/14 07:38:08;;;;;;;6.00;1.88;;;21.40;49.80;;;;;;5051484;28;20697;-63
2022/06/14 07:40:43;;;;;;;4.45;2.00;;;21.40;49.70;;;;;;5052120;28;20037;-60
2022/06/14 07:43:23;;;;;;;4.70;1.75;;;21.40;49.60;;;;;;5051879;28;20045;-60
2022/06/14 07:45:50;;;;;;;5.25;1.65;;;21.40;49.50;;;;;;5052189;28;20078;-60
2022/06/14 07:48:28;;;;;;;3.92;1.77;;;21.40;49.60;;;;;;5050879;28;20036;-60
2022/06/14 07:51:21;;;;;;;5.30;1.58;;;21.40;49.70;;;;;;5050628;28;20056;-59
2022/06/14 07:54:10;;;;;;;3.85;1.45;;;21.40;49.60;;;;;;5044982;28;20546;-62
2022/06/14 07:56:52;;;;;;;4.93;1.70;;;21.40;49.50;;;;;;5051431;28;20051;-61
2022/06/14 07:59:28;;;;;;;4.05;1.83;;;21.40;50.10;;;;;;5052725;28;20119;-60
2022/06/14 08:02:19;;;;;;;4.32;1.45;;;21.40;49.70;;;;;;5060746;28;20055;-60
2022/06/14 08:04:52;;;;;;;6.15;1.90;;;21.40;49.70;;;;;;5053798;28;20550;-61
2022/06/14 08:07:19;;;;;;;7.32;1.77;;;21.40;49.50;;;;;;5057869;28;20439;-62
2022/06/14 08:10:04;;;;;;;3.97;1.50;;;21.30;49.60;;;;;;5056130;28;20137;-60
2022/06/14 08:12:44;;;;;;;4.03;1.55;;;21.40;49.60;;;;;;5060386;28;20087;-60
2022/06/14 08:15:16;;;;;;;2.58;1.38;;;21.40;49.60;;;;;;5056748;28;20041;-60
2022/06/14 08:17:53;;;;;;;4.50;1.50;;;21.40;49.90;;;;;;5055891;28;20056;-60
2022/06/14 08:20:30;;;;;;;6.78;1.55;;;21.40;50.10;;;;;;5057569;28;20040;-60
2022/06/14 08:23:04;;;;;;;4.72;1.70;;;21.40;50.10;;;;;;5054431;28;20526;-60
2022/06/14 08:25:35;;;;;;;7.13;1.83;;;21.40;50.00;;;;;;5053403;28;20405;-61
2022/06/14 08:28:09;;;;;;;4.70;1.13;;;21.40;49.80;;;;;;5055980;28;20579;-62
2022/06/14 08:30:53;;;;;;;4.90;1.58;;;21.40;50.10;;;;;;5055470;28;20484;-60
2022/06/14 08:33:31;;;;;;;3.75;1.38;;;21.40;50.20;;;;;;5055159;28;20032;-60
2022/06/14 08:36:04;;;;;;;3.95;1.40;;;21.40;50.20;;;;;;5054724;28;20068;-60
2022/06/14 08:38:41;;;;;;;4.72;1.50;;;21.40;50.60;;;;;;5053518;28;20040;-59
2022/06/14 08:41:33;;;;;;;4.38;1.55;;;21.40;50.40;;;;;;5057072;28;20037;-60
2022/06/14 08:44:06;;;;;;;3.45;1.58;;;21.40;50.00;;;;;;5054067;28;20338;-61
2022/06/14 08:46:41;;;;;;;4.15;1.40;;;21.40;50.20;;;;;;5058970;28;20393;-61
2022/06/14 08:49:49;;;;;;;6.82;1.42;;;21.40;50.30;;;;;;5056823;28;20036;-66
2022/06/14 08:52:46;;;;;;;3.38;1.55;;;21.40;50.30;;;;;;5030433;28;20242;-62
2022/06/14 08:55:21;;;;;;;4.00;1.50;;;21.40;50.10;;;;;;5029169;28;20432;-61
2022/06/14 08:58:04;;;;;;;4.07;1.52;;;21.40;50.10;;;;;;5050560;28;20075;-61
2022/06/14 09:00:50;;;;;;;3.33;1.50;;;21.40;50.10;;;;;;5053553;28;20058;-61
2022/06/14 09:03:22;;;;;;;3.72;1.40;;;21.40;50.30;;;;;;5053865;28;20102;-62
2022/06/14 09:06:10;;;;;;;4.20;1.65;;;21.40;50.30;;;;;;5056057;28;20052;-61
2022/06/14 09:08:36;;;;;;;2.85;1.35;;;21.40;50.30;;;;;;5054505;28;20075;-61
2022/06/14 09:11:10;;;;;;;6.38;1.85;;;21.40;50.30;;;;;;5054661;28;20041;-63
2022/06/14 09:13:42;;;;;;;3.08;1.30;;;21.40;50.20;;;;;;5053209;28;20090;-63
2022/06/14 09:16:45;;;;;;;3.75;1.63;;;21.40;50.20;;;;;;5055608;28;21196;-62
2022/06/14 09:19:32;;;;;;;3.83;1.35;;;21.40;50.00;;;;;;5056187;28;20157;-61
2022/06/14 09:22:16;;;;;;;3.00;1.30;;;21.40;50.70;;;;;;5059110;28;20190;-61
2022/06/14 09:24:50;;;;;;;5.22;1.90;;;21.40;49.70;;;;;;5057103;28;20051;-61
2022/06/14 09:27:37;;;;;;;3.83;1.30;;;21.40;49.60;;;;;;5052274;28;20093;-62
2022/06/14 09:30:23;;;;;;;6.53;2.08;;;21.40;49.70;;;;;;5055156;28;20036;-61
2022/06/14 09:33:10;;;;;;;4.32;1.58;;;21.40;49.60;;;;;;5057436;28;20036;-62
2022/06/14 09:35:57;;;;;;;4.00;1.50;;;21.40;49.70;;;;;;5054301;28;20040;-61
2022/06/14 09:38:26;;;;;;;3.00;1.10;;;21.40;49.60;;;;;;5057885;28;20162;-62
2022/06/14 09:40:54;;;;;;;3.30;1.30;;;21.40;49.60;;;;;;5056142;28;20045;-61
2022/06/14 09:43:32;;;;;;;1.83;1.20;;;21.40;49.60;;;;;;5057784;28;20415;-61
2022/06/14 09:46:16;;;;;;;2.20;1.13;;;21.40;49.50;;;;;;5055654;28;20131;-63
2022/06/14 09:49:00;;;;;;;3.50;1.20;;;21.40;49.40;;;;;;5057969;28;20047;-61
2022/06/14 09:51:46;;;;;;;3.28;1.50;;;21.40;49.20;;;;;;5058140;28;20036;-61
2022/06/14 09:54:16;;;;;;;2.08;1.38;;;21.40;49.00;;;;;;5054256;28;20056;-61
2022/06/14 09:56:48;;;;;;;3.27;1.40;;;21.40;49.00;;;;;;5054868;28;20048;-61
2022/06/14 09:59:44;;;;;;;2.72;1.40;;;21.40;48.60;;;;;;5054805;28;20159;-63
2022/06/14 10:02:16;;;;;;;4.70;1.58;;;21.40;48.40;;;;;;5055572;28;20082;-61
2022/06/14 10:05:07;;;;;;;3.88;1.52;;;21.40;48.60;;;;;;5055061;28;20056;-60
2022/06/14 10:08:00;;;;;;;4.75;1.42;;;21.40;48.60;;;;;;5054811;28;20576;-61
2022/06/14 10:10:48;;;;;;;2.80;1.00;;;21.40;48.70;;;;;;5055285;28;20378;-61
2022/06/14 10:13:46;;;;;;;1.95;1.00;;;21.30;48.40;;;;;;5059084;28;20793;-62
2022/06/14 10:16:14;;;;;;;3.08;1.30;;;21.40;48.70;;;;;;5058523;28;20105;-61
2022/06/14 10:18:54;;;;;;;2.45;1.10;;;21.40;48.80;;;;;;5056553;28;20068;-61
2022/06/14 10:21:47;;;;;;;4.38;1.50;;;21.30;48.60;;;;;;5055529;28;20366;-62
2022/06/14 10:24:16;;;;;;;1.70;1.10;;;21.40;48.80;;;;;;5049849;28;20103;-63
2022/06/14 10:30:05;;;;;;;2.60;1.13;;;21.30;48.90;;;;;;5056145;28;20087;-62
2022/06/14 10:32:49;;;;;;;3.78;1.10;;;21.40;49.10;;;;;;5054448;28;20044;-61
2022/06/14 10:35:37;;;;;;;1.92;0.95;;;21.40;49.20;;;;;;5056538;28;20049;-61
2022/06/14 10:38:03;;;;;;;2.67;1.10;;;21.40;49.20;;;;;;5054985;28;20029;-61
2022/06/14 10:40:46;;;;;;;2.72;1.08;;;21.40;49.30;;;;;;5054870;28;20095;-61
2022/06/14 10:43:40;;;;;;;2.38;1.30;;;21.40;49.30;;;;;;5056562;28;20672;-62
2022/06/14 10:46:16;;;;;;;4.55;1.10;;;21.40;49.50;;;;;;5053904;28;20079;-62
2022/06/14 10:49:04;;;;;;;2.45;1.02;;;21.40;49.30;;;;;;5054447;28;20036;-61
2022/06/14 10:51:35;;;;;;;2.42;0.98;;;21.40;48.90;;;;;;5049082;28;20067;-63
2022/06/14 10:54:20;;;;;;;4.90;1.20;;;21.40;48.90;;;;;;5051652;28;20040;-62
2022/06/14 10:56:58;;;;;;;2.83;1.23;;;21.40;48.90;;;;;;5053201;28;20175;-62
2022/06/14 11:00:11;;;;;;;3.20;1.40;;;21.40;48.90;;;;;;5051421;28;20040;-62
2022/06/14 11:03:05;;;;;;;1.63;0.88;;;21.40;49.00;;;;;;5042155;28;20126;-62
2022/06/14 11:05:50;;;;;;;1.85;1.15;;;21.40;49.00;;;;;;5041685;28;20032;-62
2022/06/14 11:08:34;;;;;;;2.05;1.08;;;21.40;48.90;;;;;;5053866;28;20100;-62
2022/06/14 11:11:37;;;;;;;3.20;1.25;;;21.40;48.90;;;;;;5051571;28;20437;-62
2022/06/14 11:14:37;;;;;;;1.73;0.90;;;21.40;48.90;;;;;;5052507;28;20040;-62
2022/06/14 11:17:09;;;;;;;2.40;1.00;;;21.40;48.90;;;;;;5052947;28;20075;-63
2022/06/14 11:19:48;;;;;;;2.28;0.98;;;21.40;49.00;;;;;;5052348;28;20048;-62
2022/06/14 11:22:53;;;;;;;1.70;1.08;;;21.40;48.90;;;;;;5054257;28;20109;-62
2022/06/14 11:25:52;;;;;;;3.10;1.05;;;21.40;48.90;;;;;;5054639;28;20585;-61
2022/06/14 11:28:50;;;;;;;1.58;0.90;;;21.40;48.90;;;;;;5054883;28;20130;-61
2022/06/14 11:31:22;;;;;;;2.60;1.35;;;21.40;48.90;;;;;;5054058;28;20041;-61
2022/06/14 11:33:54;;;;;;;1.83;1.02;;;21.40;49.00;;;;;;5056055;28;20037;-61
2022/06/14 11:37:00;;;;;;;1.60;1.02;;;21.40;49.00;;;;;;5056854;28;20041;-61
2022/06/14 11:39:48;;;;;;;1.05;0.90;;;21.40;49.00;;;;;;5056917;28;20126;-61
2022/06/14 11:42:24;;;;;;;2.15;0.88;;;21.40;49.00;;;;;;5056516;28;20138;-62
2022/06/14 11:44:55;;;;;;;2.03;1.05;;;21.40;49.00;;;;;;5055836;28;20044;-62
2022/06/14 11:47:36;;;;;;;2.92;0.90;;;21.40;49.10;;;;;;5056551;28;20924;-61
2022/06/14 11:50:36;;;;;;;2.03;0.88;;;21.40;49.00;;;;;;5058431;28;20500;-61
2022/06/14 11:53:10;;;;;;;1.77;0.70;;;21.40;49.00;;;;;;5057044;28;20039;-61
2022/06/14 11:56:02;;;;;;;1.13;0.80;;;21.40;49.10;;;;;;5056270;28;20056;-61
2022/06/14 11:58:56;;;;;;;1.38;0.70;;;21.40;49.10;;;;;;5058012;28;20055;-62
2022/06/14 12:01:32;;;;;;;2.22;0.68;;;21.40;49.00;;;;;;5055831;28;20029;-61
2022/06/14 12:04:33;;;;;;;1.00;0.90;;;21.40;49.00;;;;;;5054225;28;20099;-61
2022/06/14 12:07:08;;;;;;;1.92;1.10;;;21.40;49.10;;;;;;5054894;28;20087;-61
2022/06/14 12:10:18;;;;;;;1.55;0.93;;;21.40;49.00;;;;;;5058911;28;20585;-61
2022/06/14 12:13:08;;;;;;;2.35;0.98;;;21.40;49.00;;;;;;5057305;28;20072;-61
2022/06/14 12:15:48;;;;;;;1.60;0.93;;;21.50;49.10;;;;;;5058700;28;20040;-61
2022/06/14 12:18:18;;;;;;;2.17;0.80;;;21.40;49.00;;;;;;5056368;28;20044;-61
2022/06/14 12:21:00;;;;;;;1.38;0.80;;;21.40;49.00;;;;;;5055816;28;20048;-61
2022/06/14 12:23:34;;;;;;;2.05;0.90;;;21.50;49.00;;;;;;5055419;28;20126;-61
2022/06/14 12:29:13;;;;;;;1.67;0.80;;;21.50;49.10;;;;;;5057806;28;20044;-62
2022/06/14 12:31:58;;;;;;;1.75;0.93;;;21.40;49.10;;;;;;5058395;28;20762;-61
2022/06/14 12:34:27;;;;;;;1.58;0.90;;;21.50;49.10;;;;;;5054406;28;20067;-61
2022/06/14 12:37:01;;;;;;;2.00;1.08;;;21.50;49.20;;;;;;5054685;28;20044;-61
2022/06/14 12:39:32;;;;;;;2.28;0.90;;;21.50;49.30;;;;;;5056141;28;20106;-62
2022/06/14 12:42:11;;;;;;;2.05;1.13;;;21.50;49.30;;;;;;5058222;28;20036;-61
2022/06/14 12:44:56;;;;;;;1.48;1.00;;;21.50;49.30;;;;;;5055914;28;20040;-61
2022/06/14 12:47:46;;;;;;;1.50;1.00;;;21.50;49.30;;;;;;5056089;28;20167;-62
2022/06/14 12:50:30;;;;;;;2.67;1.00;;;21.50;49.40;;;;;;5055479;28;20082;-61
2022/06/14 12:53:07;;;;;;;1.35;0.65;;;21.50;49.40;;;;;;5055327;28;20041;-62
2022/06/14 12:55:43;;;;;;;1.67;0.80;;;21.50;49.50;;;;;;5061019;28;20076;-62
2022/06/14 12:58:17;;;;;;;3.33;1.17;;;21.50;49.50;;;;;;5056480;28;20051;-61
2022/06/14 13:01:24;;;;;;;1.38;0.98;;;21.50;49.50;;;;;;5055257;28;20500;-61
2022/06/14 13:03:59;;;;;;;1.55;0.88;;;21.50;49.40;;;;;;5007884;28;20064;-61
2022/06/14 13:06:53;;;;;;;1.85;0.90;;;21.50;49.50;;;;;;5055374;28;20048;-61
2022/06/14 13:09:34;;;;;;;2.35;0.80;;;21.50;49.50;;;;;;5057263;28;20045;-61
2022/06/14 13:11:59;;;;;;;2.00;1.00;;;21.50;49.50;;;;;;5055403;28;20155;-61
2022/06/14 13:14:31;;;;;;;0.85;0.70;;;21.50;49.60;;;;;;5056839;28;20543;-61
2022/06/14 13:17:35;;;;;;;1.02;0.70;;;21.50;49.60;;;;;;5056715;28;20037;-61
2022/06/14 13:20:27;;;;;;;2.22;1.08;;;21.50;49.60;;;;;;5047022;28;20056;-62
2022/06/14 13:23:02;;;;;;;1.63;0.93;;;21.50;49.60;;;;;;5056440;28;20048;-61
2022/06/14 13:25:39;;;;;;;2.15;0.95;;;21.50;49.60;;;;;;5055918;28;20044;-61
2022/06/14 13:28:28;;;;;;;1.75;0.70;;;21.50;49.60;;;;;;5057819;28;20654;-61
2022/06/14 13:31:04;;;;;;;1.20;0.90;;;21.50;49.70;;;;;;5055705;28;20037;-62
2022/06/14 13:33:54;;;;;;;1.70;0.77;;;21.50;49.70;;;;;;5055081;28;20441;-62
2022/06/14 13:36:26;;;;;;;1.67;0.70;;;21.50;49.60;;;;;;5057892;28;20044;-61
2022/06/14 13:39:10;;;;;;;1.10;0.70;;;21.50;49.70;;;;;;5054369;28;21033;-61
2022/06/14 13:42:00;;;;;;;1.73;0.88;;;21.50;49.80;;;;;;5055285;28;20032;-61
2022/06/14 13:44:43;;;;;;;1.10;0.75;;;21.50;49.80;;;;;;5055105;28;20047;-61
2022/06/14 13:47:28;;;;;;;0.90;0.70;;;21.50;49.70;;;;;;5056246;28;20032;-61
2022/06/14 13:50:11;;;;;;;4.53;0.95;;;21.50;49.60;;;;;;5056931;28;20106;-61
2022/06/14 13:52:43;;;;;;;1.15;0.68;;;21.50;49.70;;;;;;5056062;28;20033;-61
2022/06/14 13:55:12;;;;;;;2.35;1.00;;;21.60;49.70;;;;;;5053346;28;20040;-61
2022/06/14 13:57:48;;;;;;;2.33;0.90;;;21.60;49.90;;;;;;5055575;28;20090;-62
2022/06/14 14:00:35;;;;;;;1.55;0.85;;;21.60;49.90;;;;;;5052262;28;20037;-60
2022/06/14 14:03:31;;;;;;;1.45;0.90;;;21.60;50.00;;;;;;5053874;28;20052;-61
2022/06/14 14:06:09;;;;;;;1.65;0.80;;;21.60;49.90;;;;;;5052077;28;20036;-62
2022/06/14 14:08:46;;;;;;;2.47;0.68;;;21.60;49.90;;;;;;5053153;28;20713;-61